METAR UND TAF INFORMATION
CYDP 241100Z 30003KT 280V340 15SM FEW026 06/04 A2992 RMK SC1 TR SC SLP132

 FLUGHAFENKARTE

 RUNWAY INFORMATION
Runway 06 Runway length 2000 ft Runway width 75 ft
Runway elevation 0 ft Runway displaced threshold 0 ft Runway heading 0
Runway 24 Runway length 2000 ft Runway width 75 ft
Runway elevation 0 ft Runway displaced threshold 0 ft Runway heading 0

 AIRPORT FREQUENCIES

 AIRPORT NEAR NAVIGATION AIDS
Type NDB Name Nain Frequency 247 KHZ